createdAt,value
2018-11-26T00:04:35.233Z,54.07
2018-11-26T00:09:39.091Z,54.03
2018-11-26T00:14:43.262Z,48.57
2018-11-26T00:19:47.386Z,44.17
2018-11-26T00:24:51.843Z,50.50
2018-11-26T00:29:56.293Z,51.53
2018-11-26T00:35:00.415Z,52.33
2018-11-26T00:40:04.990Z,52.43
2018-11-26T00:45:11.061Z,52.97
2018-11-26T00:50:15.216Z,56.10
2018-11-26T00:55:19.339Z,51.43
2018-11-26T01:00:24.138Z,66.97
2018-11-26T01:05:37.222Z,59.50
2018-11-26T01:10:41.664Z,64.80
2018-11-26T01:15:47.281Z,59.03
2018-11-26T01:20:51.735Z,62.67
2018-11-26T01:25:56.257Z,61.57
2018-11-26T01:31:00.683Z,59.80
2018-11-26T01:36:05.396Z,62.37
2018-11-26T01:41:09.873Z,55.47
2018-11-26T01:46:14.403Z,62.67
2018-11-26T01:51:18.532Z,62.93
2018-11-26T01:56:22.647Z,57.73
2018-11-26T02:01:26.761Z,54.37
2018-11-26T02:06:31.278Z,58.33
2018-11-26T02:11:35.681Z,57.97
2018-11-26T02:16:40.560Z,52.97
2018-11-26T02:21:44.761Z,56.47
2018-11-26T02:26:49.420Z,60.67
2018-11-26T02:31:54.069Z,53.63
2018-11-26T02:36:58.242Z,53.73
2018-11-26T02:42:02.358Z,50.17
2018-11-26T02:47:07.110Z,54.83
2018-11-26T02:52:11.238Z,54.77
2018-11-26T02:57:15.344Z,57.33
2018-11-26T03:02:20.130Z,50.47
2018-11-26T03:07:24.613Z,56.80
2018-11-26T03:12:28.761Z,52.27
2018-11-26T03:17:39.582Z,58.47
2018-11-26T03:22:43.680Z,53.30
2018-11-26T03:27:48.452Z,50.30
2018-11-26T03:32:52.548Z,45.50
2018-11-26T03:37:57.299Z,49.83
2018-11-26T03:43:02.065Z,45.13
2018-11-26T03:48:06.731Z,48.77
2018-11-26T03:53:10.820Z,50.73
2018-11-26T03:58:14.933Z,54.10
2018-11-26T04:03:18.809Z,53.77
2018-11-26T04:08:22.925Z,53.30
2018-11-26T04:13:27.000Z,48.07
2018-11-26T04:18:31.546Z,42.50
2018-11-26T04:23:36.344Z,42.57
2018-11-26T04:28:40.759Z,49.67
2018-11-26T04:33:45.533Z,46.73
2018-11-26T04:38:50.289Z,47.23
2018-11-26T04:43:54.435Z,45.33
2018-11-26T04:48:58.517Z,47.53
2018-11-26T04:54:02.617Z,52.13
2018-11-26T04:59:07.088Z,48.77
2018-11-26T05:04:11.198Z,49.93
2018-11-26T05:09:15.664Z,45.10
2018-11-26T05:14:19.518Z,46.50
2018-11-26T05:19:23.648Z,49.17
2018-11-26T05:24:27.756Z,50.20
2018-11-26T05:29:32.192Z,49.47
2018-11-26T05:34:36.319Z,46.03
2018-11-26T05:39:40.419Z,45.20
2018-11-26T05:44:44.546Z,43.53
2018-11-26T05:49:49.305Z,45.17
2018-11-26T05:54:53.770Z,44.83
2018-11-26T05:59:57.895Z,44.13
2018-11-26T06:05:02.015Z,47.60
2018-11-26T14:18:03.917Z,42.10
2018-11-26T14:23:17.236Z,40.40
2018-11-26T14:28:21.517Z,40.17
2018-11-26T14:33:27.002Z,42.77
2018-11-26T14:38:31.477Z,39.87
2018-11-26T14:43:36.034Z,44.33
2018-11-26T14:48:40.509Z,39.57
2018-11-26T14:53:44.667Z,37.73
2018-11-26T14:58:49.531Z,37.57
2018-11-26T15:03:53.682Z,45.47
2018-11-26T15:08:58.169Z,42.33
2018-11-26T15:14:03.566Z,40.20
2018-11-26T15:19:09.047Z,42.20
2018-11-26T15:24:14.559Z,37.60
2018-11-26T15:29:20.125Z,41.00
2018-11-26T15:34:24.705Z,39.07
2018-11-26T15:39:28.911Z,37.23
2018-11-26T15:44:33.075Z,37.83
2018-11-26T15:49:37.271Z,39.80
2018-11-26T15:54:41.829Z,35.37
2018-11-26T15:59:47.001Z,34.30
2018-11-26T16:04:51.331Z,42.70
2018-11-26T16:09:55.526Z,38.80
2018-11-26T16:15:01.378Z,40.43
2018-11-26T16:20:08.607Z,37.17
2018-11-26T16:25:14.010Z,35.87
2018-11-26T16:30:19.944Z,37.77
2018-11-26T16:35:25.631Z,41.60
2018-11-26T16:40:31.120Z,40.87
2018-11-26T16:45:36.307Z,34.27
2018-11-26T16:50:41.140Z,30.27
2018-11-26T16:55:45.957Z,33.97
2018-11-26T17:00:52.147Z,31.23
2018-11-26T17:05:56.656Z,28.73
2018-11-26T17:11:00.913Z,31.77
2018-11-26T17:16:05.663Z,28.20
2018-11-26T17:21:11.313Z,32.90
2018-11-26T17:26:15.486Z,28.73
2018-11-26T17:31:23.736Z,28.37
2018-11-26T17:36:28.104Z,32.60
2018-11-26T17:41:34.271Z,27.37
2018-11-26T17:46:39.599Z,31.33
2018-11-26T17:51:44.127Z,26.03
2018-11-26T17:56:48.347Z,32.10
2018-11-26T18:01:52.568Z,30.70
2018-11-26T18:06:57.796Z,25.00
2018-11-26T18:12:02.300Z,26.17
2018-11-26T18:17:06.815Z,25.87
2018-11-26T18:22:11.603Z,24.07
2018-11-26T18:27:17.380Z,28.57
2018-11-26T18:32:21.893Z,24.50
2018-11-26T18:37:26.407Z,27.37
2018-11-26T18:42:31.895Z,28.57
2018-11-26T18:47:37.477Z,21.83
2018-11-26T18:52:42.731Z,22.20
2018-11-26T18:57:47.378Z,25.10
2018-11-26T19:02:52.547Z,21.23
2018-11-26T19:07:57.734Z,23.03
2018-11-26T19:13:11.856Z,24.47
2018-11-26T19:18:21.637Z,22.10
2018-11-26T19:23:26.149Z,22.23
2018-11-26T19:28:30.255Z,25.30
2018-11-26T19:33:34.865Z,26.67
2018-11-26T19:38:39.720Z,26.50
2018-11-26T19:43:46.133Z,26.00
2018-11-26T19:48:51.146Z,26.50
2018-11-26T19:53:55.336Z,26.10
2018-11-26T19:58:59.507Z,25.67
2018-11-26T20:04:12.510Z,28.27
2018-11-26T20:09:18.723Z,29.17
2018-11-26T20:14:26.081Z,23.70
2018-11-26T20:19:27.893Z,25.90
2018-11-26T20:24:32.998Z,27.57
2018-11-26T20:29:37.137Z,27.63
2018-11-26T20:34:41.626Z,24.77
2018-11-26T20:39:47.453Z,29.13
2018-11-26T20:44:51.626Z,32.27
2018-11-26T20:49:56.119Z,36.53
2018-11-26T20:55:01.713Z,35.60
2018-11-26T21:00:10.259Z,34.67
2018-11-26T21:05:14.755Z,31.93
2018-11-26T21:10:19.224Z,32.67
2018-11-26T21:15:23.361Z,37.97
2018-11-26T21:20:30.813Z,34.30
2018-11-26T21:25:35.374Z,33.80
2018-11-26T21:30:39.864Z,31.97
2018-11-26T21:35:44.427Z,37.17
2018-11-26T21:40:49.564Z,38.13
2018-11-26T21:45:57.628Z,33.67
2018-11-26T21:51:02.158Z,32.33
2018-11-26T21:56:06.388Z,35.37
2018-11-26T22:01:12.526Z,31.63
2018-11-26T22:06:17.031Z,35.70
2018-11-26T22:11:21.462Z,33.57
2018-11-26T22:16:25.935Z,35.57
2018-11-26T22:21:31.091Z,33.17
2018-11-26T22:26:37.480Z,31.53
2018-11-26T22:31:45.456Z,37.80
2018-11-26T22:36:49.924Z,34.03
2018-11-26T22:41:54.433Z,33.47
2018-11-26T22:46:59.005Z,32.73
2018-11-26T22:52:03.186Z,34.70
2018-11-26T22:57:08.006Z,30.33
2018-11-26T23:02:12.491Z,29.53
2018-11-26T23:50:30.779Z,30.97
2018-11-26T23:55:34.882Z,32.27
